Motte Rimrock Reserve, California Weather observations

Data are for 10 minute period ending at time listed.
 Day   Time   Solar   Ave.   Ave.  Ave.  Vector  Max.   Baro.   Total    
  of    of     Rad.   Air    Rel.  Wind   Wind   Wind  Press.  Precip.   
Year   Day            Temp.  Hum.  Speed  Dir.   Gust                    
2015   (PST)  Kw/m2    F      %     mph   deg.    mph    mb.     in.     
-------------------------------------------------------------------------
 145    3:30   0.00   49.6    96    3.0   226     4.4   945.7    0.00 
 145    3:40   0.00   49.5    96    2.0   242     2.7   945.7    0.00 
 145    3:50   0.00   49.8    97    2.4   230     3.3   945.6    0.00 
 145    4:00   0.00   50.2    97    2.0   221     3.2   945.5    0.00 
 145    4:10   0.00   50.5    97    1.6   224     3.3   945.6    0.00 
 145    4:20   0.00   50.6    97    1.6   193     2.8   945.7    0.00 
 145    4:30   0.00   50.7    97    2.1   180     3.1   945.7    0.00 
 145    4:40   0.00   50.7    97    2.7   210     3.8   945.7    0.00 
 145    4:50   0.00   50.6    97    2.4   217     3.4   945.7    0.00 
 145    5:00   0.00   50.6    98    1.3   204     2.4   945.7    0.00 
 145    5:10   0.00   50.7    98    0.5   183     1.7   945.7    0.00 
 145    5:20   0.01   51.0    98    2.4   135     3.4   945.9    0.00 
 145    5:30   0.02   51.6    98    2.5   136     3.6   946.0    0.00 
 145    5:40   0.03   51.8    98    3.0   183     4.4   946.2    0.00 
 145    5:50   0.03   51.7    98    3.4   209     4.5   946.3    0.00 
 145    6:00   0.04   51.7    98    2.7   223     3.4   946.3    0.00 
 145    6:10   0.05   51.8    99    3.0   236     3.9   946.4    0.00 
 145    6:20   0.06   52.1    99    2.1   252     2.8   946.6    0.00 
 145    6:30   0.07   52.3   100    2.6   265     4.3   946.7    0.00 
 145    6:40   0.08   52.6    98    1.9   263     4.5   946.7    0.00 
 145    6:50   0.10   53.0    97    1.4   222     4.5   946.9    0.00 
 145    7:00   0.11   53.4    95    2.6   242     5.2   947.0    0.00 
 145    7:10   0.12   53.6    92    2.3   202     3.7   947.1    0.00 
 145    7:20   0.11   54.2    89    1.8   149     3.0   947.2    0.00 
 145    7:30   0.13   54.6    86    1.2   266     3.2   947.2    0.00 
 145    7:40   0.14   55.3    84    0.9   151     1.9   947.2    0.00 
 145    7:50   0.13   55.8    82    1.6   121     4.0   947.4    0.00 
 145    8:00   0.14   55.6    82    2.5    76     4.4   947.5    0.00 
 145    8:10   0.14   56.0    81    2.1    89     4.3   947.6    0.00 
 145    8:20   0.17   56.0    81    3.3   124     5.8   947.7    0.00 
 145    8:30   0.18   56.3    80    2.6   122     5.9   947.8    0.00 
 145    8:40   0.19   56.4    80    3.5   155     5.7   947.8    0.00 
 145    8:50   0.18   56.6    79    2.1   200     6.1   947.8    0.00 
 145    9:00   0.17   56.9    78    4.2   150     8.8   947.9    0.00 
 145    9:10   0.19   56.8    79    6.5   151     9.3   947.9    0.00 
 145    9:20   0.23   56.7    79    6.7   160     9.5   947.9    0.00 
 145    9:30   0.24   57.0    78    5.0   179     8.4   947.9    0.00 
 145    9:40   0.25   57.4    78    4.6   162     8.1   947.9    0.00 
 145    9:50   0.26   57.7    77    4.9   165     9.6   948.0    0.00 
 145   10:00   0.28   58.3    76    4.9   144     7.7   948.1    0.00 
 145   10:10   0.32   58.4    76    3.8   172     6.4   948.2    0.00 
 145   10:20   0.42   58.9    74    3.9   162     7.9   948.3    0.00 
 145   10:30   0.46   59.9    72    5.3   162     9.6   948.4    0.00 
 145   10:40   0.60   60.4    72    7.3   140    11.3   948.5    0.00 
 145   10:50   0.81   60.7    71    7.9   145    11.7   948.5    0.00 
 145   11:00   0.84   61.4    69    8.2   131    11.6   948.5    0.00 
 145   11:10   0.83   62.3    67    6.2   112    12.4   948.5    0.00 
 145   11:20   0.59   61.8    68    6.1    99     9.1   948.5    0.00 
 145   11:30   0.74   62.6    66    6.2   121    10.2   948.4    0.00 
 145   11:40   0.96   63.9    63    5.7    74     9.1   948.3    0.00 
 145   11:50   0.93   63.4    64    4.8    74    10.7   948.3    0.00 
 145   12:00   0.74   63.8    63    5.7   102    10.1   948.2    0.00 
 145   12:10   0.90   63.9    63    5.7   134     9.8   948.2    0.00 
 145   12:20   0.77   64.6    62    5.1    97    11.1   948.1    0.00 
 145   12:30   0.83   64.7    61    4.1   101     9.2   948.0    0.00 
 145   12:40   0.95   65.5    60    5.4    97    10.1   947.9    0.00 
 145   12:50   0.96   66.8    57    7.8   106    14.5   947.8    0.00 
 145   13:00   0.92   67.3    57    5.5   124     9.1   947.7    0.00 
 145   13:10   0.94   68.7    54    6.5   116    11.0   947.5    0.00 
 145   13:20   0.92   67.6    56    6.4    76    12.5   947.4    0.00 
 145   13:30   0.90   68.0    55    5.9   110     9.4   947.4    0.00 
 145   13:40   0.89   69.5    53    5.5   126     9.9   947.3    0.00 
 145   13:50   0.88   70.6    51    6.2   119    10.6   947.1    0.00 
 145   14:00   0.86   71.1    50    3.8   143     8.1   947.0    0.00 
 145   14:10   0.84   71.0    50    4.6   147    10.0   946.9    0.00 
 145   14:20   0.81   71.7    49    5.1   148     9.9   946.8    0.00 
 145   14:30   0.79   72.8    47    2.8   291     7.9   946.7    0.00 
 145   14:40   0.77   72.5    47    7.9   294    14.0   946.5    0.00 
 145   14:50   0.74   72.1    47    6.2   290    11.1   946.3    0.00 
 145   15:00   0.71   72.5    47    7.6   282    13.6   946.2    0.00 
 145   15:10   0.68   72.5    47    8.8   295    14.7   946.1    0.00 
 145   15:20   0.66   72.1    47   10.8   292    14.2   946.0    0.00 
 145   15:30   0.63   72.4    47   10.5   306    18.5   946.0    0.00 
 145   15:40   0.53   72.2    47   10.9   303    16.6   946.0    0.00 
 145   15:50   0.57   72.2    47   11.8   307    16.1   946.0    0.00 
 145   16:00   0.53   71.3    49   11.9   304    16.7   946.0    0.00 
 145   16:10   0.48   71.9    48   10.9   302    16.5   945.9    0.00 
 145   16:20   0.45   71.4    50   13.2   312    17.5   945.9    0.00 
 145   16:30   0.42   70.9    51   13.4   308    18.9   945.9    0.00 
 145   16:40   0.37   70.4    52   11.4   310    15.6   945.9    0.00 
 145   16:50   0.35   70.1    52   13.6   314    19.3   945.9    0.00 
 145   17:00   0.29   69.6    54   13.8   311    18.6   945.9    0.00 
 145   17:10   0.21   68.6    56   13.9   313    18.5   945.8    0.00 
 145   17:20   0.26   68.3    57   14.1   307    17.5   945.9    0.00 
 145   17:30   0.21   67.9    58   14.5   314    18.7   945.9    0.00 
 145   17:40   0.10   67.0    60   14.4   306    19.1   946.0    0.00 
 145   17:50   0.11   66.1    62   14.4   311    17.9   946.1    0.00 
 145   18:00   0.12   65.7    62   14.9   310    19.7   946.1    0.00 
 145   18:10   0.08   64.7    65   15.0   304    18.6   946.1    0.00 
 145   18:20   0.04   63.7    67   15.2   306    18.0   946.2    0.00 
 145   18:30   0.02   63.0    68   14.4   302    18.6   946.2    0.00 
 145   18:40   0.01   62.5    69   13.6   309    17.5   946.2    0.00 
 145   18:50   0.00   61.9    71   12.5   299    16.4   946.3    0.00 
 145   19:00   0.00   61.4    72   13.3   301    15.9   946.3    0.00 
 145   19:10   0.00   60.9    73   12.8   299    16.2   946.5    0.00 
 145   19:20   0.00   60.4    75   12.3   301    15.2   946.5    0.00 
 145   19:30   0.00   60.0    76   12.1   301    14.1   946.6    0.00 
 145   19:40   0.00   59.6    76   11.8   299    14.4   946.7    0.00 
 145   19:50   0.00   59.2    77    8.4   297    14.2   946.7    0.00 
 145   20:00   0.00   59.0    78    1.1   310     4.2   946.9    0.00 
 145   20:10   0.00   58.8    78    2.9   337     6.2   947.1    0.00 
 145   20:20   0.00   58.5    78    2.0   342     3.8   947.1    0.00 
 145   20:30   0.00   58.3    79    1.8     3     4.5   947.3    0.00 
 145   20:40   0.00   58.2    79    2.5     9     4.3   947.4    0.00 
 145   20:50   0.00   58.0    80    2.2   356     3.7   947.4    0.00 
 145   21:00   0.00   57.8    80    2.9   359     4.2   947.5    0.00 
 145   21:10   0.00   57.6    81    2.8     6     4.2   947.5    0.00 
 145   21:20   0.00   57.6    81    3.3     8     5.3   947.4    0.00 
 145   21:30   0.00   57.0    82    2.7    42     5.0   947.5    0.00 
 145   21:40   0.00   56.3    85    3.4    30     5.7   947.5    0.00 
 145   21:50   0.00   56.3    85    4.6   350     6.7   947.4    0.00 
 145   22:00   0.00   56.2    84    3.4    23     6.5   947.4    0.00 
 145   22:10   0.00   55.9    86    2.7    33     3.7   947.5    0.00 
 145   22:20   0.00   55.7    87    3.0    27     3.9   947.5    0.00 
 145   22:30   0.00   55.6    87    2.7    22     4.4   947.4    0.00 
 145   22:40   0.00   55.5    87    3.4    19     4.5   947.5    0.00 
 145   22:50   0.00   55.3    87    3.4   359     5.4   947.4    0.00 
 145   23:00   0.00   55.0    88    3.1   353     4.4   947.4    0.00 
 145   23:10   0.00   54.8    88    3.9   333     6.0   947.4    0.00 
 145   23:20   0.00   54.8    89    5.8   322     7.8   947.3    0.00 
 145   23:30   0.00   54.6    89    6.4   316     8.6   947.3    0.00 
 145   23:40   0.00   54.8    89    8.0   319    10.4   947.3    0.00 
 145   23:50   0.00   55.0    89    7.8   326     9.4   947.2    0.00 
 146    0:00   0.00   55.0    89    6.2   322     9.0   947.0    0.00 
 146    0:10   0.00   55.1    89    6.4   318    10.5   946.9    0.00 
 146    0:20   0.00   55.2    88    6.4   307     9.3   946.9    0.00 
 146    0:30   0.00   55.3    88    6.3   321    10.5   946.8    0.00 
 146    0:40   0.00   55.3    88    4.4   307     7.1   946.7    0.00 
 146    0:50   0.00   55.4    88    3.0   310     5.3   946.6    0.00 
 146    1:00   0.00   55.3    88    1.8   303     5.2   946.5    0.00 
 146    1:10   0.00   55.5    88    1.7   347     4.5   946.5    0.00 
 146    1:20   0.00   55.5    87    1.3     6     2.9   946.5    0.00 
 146    1:30   0.00   55.6    87    1.7   341     3.3   946.5    0.00 
 146    1:40   0.00   55.6    87    1.4    40     3.1   946.4    0.00 
 146    1:50   0.00   55.4    87    1.1    45     3.4   946.5    0.00 
 146    2:00   0.00   55.3    88    1.5   339     2.9   946.4    0.00 
 146    2:10   0.00   55.2    88    2.6    27     4.2   946.4    0.00 
 146    2:20   0.00   55.1    88    1.7   359     3.5   946.5    0.00 
 146    2:30   0.00   55.1    88    2.3   246     3.9   946.5    0.00 
 146    2:40   0.00   54.9    88    1.6   253     2.6   946.6    0.00 
 146    2:50   0.00   54.9    89    1.3   286     4.0   946.8    0.00 
 146    3:00   0.00   54.8    89    2.2   338     3.8   946.9    0.00 
 146    3:10   0.00   54.9    89    2.0   307     4.7   946.8    0.00 
 146    3:20   0.00   55.0    89    1.4   296     3.7   946.9    0.00 

Return to Motte Rimrock Reserve graphs page.


Western Regional Climate Center,wrcc@dri.edu